sensor_id;sensor_type;location;lat;lon;timestamp;pressure;altitude;pressure_sealevel;temperature;humidity
40872;BME280;26591;43.264;26.940;2023-06-19T00:02:17;98679.06;;;20.05;80.19
40872;BME280;26591;43.264;26.940;2023-06-19T00:04:42;98686.19;;;20.11;80.52
40872;BME280;26591;43.264;26.940;2023-06-19T00:07:09;98690.47;;;20.24;79.81
40872;BME280;26591;43.264;26.940;2023-06-19T00:09:34;98686.78;;;20.13;80.06
40872;BME280;26591;43.264;26.940;2023-06-19T00:12:00;98686.91;;;20.06;80.38
40872;BME280;26591;43.264;26.940;2023-06-19T00:14:29;98688.16;;;20.27;80.27
40872;BME280;26591;43.264;26.940;2023-06-19T00:17:04;98673.78;;;20.22;79.51
40872;BME280;26591;43.264;26.940;2023-06-19T00:19:32;98686.59;;;20.32;79.49
40872;BME280;26591;43.264;26.940;2023-06-19T00:22:02;98691.09;;;20.14;80.36
40872;BME280;26591;43.264;26.940;2023-06-19T00:24:28;98678.78;;;20.30;79.90
40872;BME280;26591;43.264;26.940;2023-06-19T00:26:53;98691.56;;;20.11;80.26
40872;BME280;26591;43.264;26.940;2023-06-19T00:29:19;98694.91;;;20.30;80.10
40872;BME280;26591;43.264;26.940;2023-06-19T00:31:44;98696.41;;;20.26;79.99
40872;BME280;26591;43.264;26.940;2023-06-19T00:34:10;98696.91;;;20.23;80.04
40872;BME280;26591;43.264;26.940;2023-06-19T00:36:35;98698.19;;;20.20;80.37
40872;BME280;26591;43.264;26.940;2023-06-19T00:39:07;98699.09;;;20.38;80.12
40872;BME280;26591;43.264;26.940;2023-06-19T00:41:42;98694.25;;;20.11;80.53
40872;BME280;26591;43.264;26.940;2023-06-19T00:44:09;98687.59;;;20.13;81.24
40872;BME280;26591;43.264;26.940;2023-06-19T00:46:37;98693.53;;;20.16;81.04
40872;BME280;26591;43.264;26.940;2023-06-19T00:49:05;98696.91;;;20.52;79.93
40872;BME280;26591;43.264;26.940;2023-06-19T00:51:31;98708.06;;;20.43;80.17
40872;BME280;26591;43.264;26.940;2023-06-19T00:53:57;98707.13;;;20.50;79.90
40872;BME280;26591;43.264;26.940;2023-06-19T00:56:22;98703.63;;;20.37;80.13
40872;BME280;26591;43.264;26.940;2023-06-19T00:58:48;98695.03;;;20.23;80.99
40872;BME280;26591;43.264;26.940;2023-06-19T01:01:13;98704.66;;;20.48;80.53
40872;BME280;26591;43.264;26.940;2023-06-19T01:03:39;98702.25;;;20.64;79.95
40872;BME280;26591;43.264;26.940;2023-06-19T01:06:14;98705.53;;;20.66;79.16
40872;BME280;26591;43.264;26.940;2023-06-19T01:08:59;98708.59;;;20.57;79.22
40872;BME280;26591;43.264;26.940;2023-06-19T01:11:31;98706.22;;;20.73;79.33
40872;BME280;26591;43.264;26.940;2023-06-19T01:14:02;98707.16;;;20.96;78.28
40872;BME280;26591;43.264;26.940;2023-06-19T01:16:30;98714.50;;;21.00;77.41
40872;BME280;26591;43.264;26.940;2023-06-19T01:18:56;98713.19;;;20.74;78.15
40872;BME280;26591;43.264;26.940;2023-06-19T01:21:21;98720.00;;;20.77;78.18
40872;BME280;26591;43.264;26.940;2023-06-19T01:23:47;98715.22;;;20.67;78.76
40872;BME280;26591;43.264;26.940;2023-06-19T01:26:23;98724.81;;;20.63;78.98
40872;BME280;26591;43.264;26.940;2023-06-19T01:28:52;98720.91;;;20.82;78.20
40872;BME280;26591;43.264;26.940;2023-06-19T01:31:42;98723.56;;;20.94;76.82
40872;BME280;26591;43.264;26.940;2023-06-19T01:34:10;98733.47;;;20.94;77.07
40872;BME280;26591;43.264;26.940;2023-06-19T01:36:41;98736.75;;;20.96;77.10
40872;BME280;26591;43.264;26.940;2023-06-19T01:39:07;98726.72;;;20.91;77.39
40872;BME280;26591;43.264;26.940;2023-06-19T01:41:35;98724.09;;;20.96;77.66
40872;BME280;26591;43.264;26.940;2023-06-19T01:44:01;98726.66;;;21.03;77.43
40872;BME280;26591;43.264;26.940;2023-06-19T01:46:27;98736.03;;;21.00;77.39
40872;BME280;26591;43.264;26.940;2023-06-19T01:48:53;98739.38;;;21.08;77.27
40872;BME280;26591;43.264;26.940;2023-06-19T01:51:19;98739.00;;;20.87;78.42
40872;BME280;26591;43.264;26.940;2023-06-19T01:53:44;98741.19;;;21.02;77.22
40872;BME280;26591;43.264;26.940;2023-06-19T01:56:10;98744.78;;;21.08;77.66
40872;BME280;26591;43.264;26.940;2023-06-19T01:58:36;98735.34;;;21.22;77.15
40872;BME280;26591;43.264;26.940;2023-06-19T02:01:01;98736.22;;;21.28;76.80
40872;BME280;26591;43.264;26.940;2023-06-19T02:03:28;98748.06;;;21.27;76.80
40872;BME280;26591;43.264;26.940;2023-06-19T02:05:53;98746.97;;;20.82;79.00
40872;BME280;26591;43.264;26.940;2023-06-19T02:08:19;98752.31;;;20.94;78.57
40872;BME280;26591;43.264;26.940;2023-06-19T02:10:44;98748.63;;;20.83;78.84
40872;BME280;26591;43.264;26.940;2023-06-19T02:13:12;98755.56;;;20.67;79.50
40872;BME280;26591;43.264;26.940;2023-06-19T02:15:37;98756.47;;;20.84;78.74
40872;BME280;26591;43.264;26.940;2023-06-19T02:18:04;98768.25;;;21.12;78.32
40872;BME280;26591;43.264;26.940;2023-06-19T02:20:30;98770.88;;;21.24;77.11
40872;BME280;26591;43.264;26.940;2023-06-19T02:22:55;98760.00;;;21.02;78.57
40872;BME280;26591;43.264;26.940;2023-06-19T02:25:21;98766.59;;;20.94;78.51
40872;BME280;26591;43.264;26.940;2023-06-19T02:27:48;98776.16;;;21.02;78.10
40872;BME280;26591;43.264;26.940;2023-06-19T02:30:14;98780.66;;;21.13;78.31
40872;BME280;26591;43.264;26.940;2023-06-19T02:32:40;98776.03;;;21.43;76.88
40872;BME280;26591;43.264;26.940;2023-06-19T02:35:07;98786.63;;;21.32;77.23
40872;BME280;26591;43.264;26.940;2023-06-19T02:37:35;98785.56;;;21.33;76.79
40872;BME280;26591;43.264;26.940;2023-06-19T02:40:05;98790.78;;;21.23;76.57
40872;BME280;26591;43.264;26.940;2023-06-19T02:42:35;98788.94;;;21.12;77.88
40872;BME280;26591;43.264;26.940;2023-06-19T02:45:01;98791.25;;;21.20;77.32
40872;BME280;26591;43.264;26.940;2023-06-19T02:47:30;98792.81;;;21.33;76.53
40872;BME280;26591;43.264;26.940;2023-06-19T02:49:59;98796.34;;;21.50;76.40
40872;BME280;26591;43.264;26.940;2023-06-19T02:52:26;98797.66;;;21.31;76.31
40872;BME280;26591;43.264;26.940;2023-06-19T02:54:51;98800.25;;;21.26;77.24
40872;BME280;26591;43.264;26.940;2023-06-19T02:57:17;98805.44;;;21.15;77.94
40872;BME280;26591;43.264;26.940;2023-06-19T02:59:42;98807.63;;;21.18;77.47
40872;BME280;26591;43.264;26.940;2023-06-19T03:02:07;98811.84;;;21.43;76.83
40872;BME280;26591;43.264;26.940;2023-06-19T03:04:34;98807.59;;;21.47;76.30
40872;BME280;26591;43.264;26.940;2023-06-19T03:06:59;98806.78;;;21.47;75.27
40872;BME280;26591;43.264;26.940;2023-06-19T03:09:25;98803.13;;;21.07;77.10
40872;BME280;26591;43.264;26.940;2023-06-19T03:11:51;98802.19;;;20.84;78.00
40872;BME280;26591;43.264;26.940;2023-06-19T03:14:16;98805.00;;;20.78;78.96
40872;BME280;26591;43.264;26.940;2023-06-19T03:16:44;98798.88;;;20.94;78.09
40872;BME280;26591;43.264;26.940;2023-06-19T03:19:09;98801.78;;;20.93;77.72
40872;BME280;26591;43.264;26.940;2023-06-19T03:21:35;98818.03;;;20.98;77.55
40872;BME280;26591;43.264;26.940;2023-06-19T03:24:00;98814.03;;;21.00;77.20
40872;BME280;26591;43.264;26.940;2023-06-19T03:26:26;98820.25;;;21.01;76.11
40872;BME280;26591;43.264;26.940;2023-06-19T03:28:51;98818.16;;;21.20;75.48
40872;BME280;26591;43.264;26.940;2023-06-19T03:31:18;98821.78;;;21.26;75.33
40872;BME280;26591;43.264;26.940;2023-06-19T03:33:43;98821.06;;;21.47;74.94
40872;BME280;26591;43.264;26.940;2023-06-19T03:36:09;98816.22;;;21.32;75.77
40872;BME280;26591;43.264;26.940;2023-06-19T03:38:34;98818.66;;;21.34;75.99
40872;BME280;26591;43.264;26.940;2023-06-19T03:41:00;98813.13;;;21.24;76.16
40872;BME280;26591;43.264;26.940;2023-06-19T03:43:44;98816.63;;;21.24;75.98
40872;BME280;26591;43.264;26.940;2023-06-19T03:46:09;98808.47;;;21.36;76.11
40872;BME280;26591;43.264;26.940;2023-06-19T03:48:34;98815.88;;;21.58;75.75
40872;BME280;26591;43.264;26.940;2023-06-19T03:51:00;98816.19;;;21.78;75.42
40872;BME280;26591;43.264;26.940;2023-06-19T03:53:28;98818.78;;;22.07;72.26
40872;BME280;26591;43.264;26.940;2023-06-19T03:55:54;98830.56;;;22.01;71.93
40872;BME280;26591;43.264;26.940;2023-06-19T03:58:20;98827.06;;;22.01;71.25
40872;BME280;26591;43.264;26.940;2023-06-19T04:00:45;98823.56;;;22.39;70.69
40872;BME280;26591;43.264;26.940;2023-06-19T04:03:14;98824.88;;;22.37;69.66
40872;BME280;26591;43.264;26.940;2023-06-19T04:05:39;98824.28;;;22.52;69.73
40872;BME280;26591;43.264;26.940;2023-06-19T04:08:07;98821.63;;;22.35;68.56
40872;BME280;26591;43.264;26.940;2023-06-19T04:10:32;98828.94;;;22.39;68.51
40872;BME280;26591;43.264;26.940;2023-06-19T04:12:58;98829.41;;;22.14;69.46
40872;BME280;26591;43.264;26.940;2023-06-19T04:15:23;98829.63;;;22.47;68.99
40872;BME280;26591;43.264;26.940;2023-06-19T04:17:49;98838.59;;;22.35;68.69
40872;BME280;26591;43.264;26.940;2023-06-19T04:20:14;98833.63;;;22.66;67.66
40872;BME280;26591;43.264;26.940;2023-06-19T04:22:43;98825.50;;;22.61;67.11
40872;BME280;26591;43.264;26.940;2023-06-19T04:25:09;98831.88;;;22.77;66.89
40872;BME280;26591;43.264;26.940;2023-06-19T04:27:38;98825.88;;;22.70;66.81
40872;BME280;26591;43.264;26.940;2023-06-19T04:30:04;98831.94;;;22.82;66.76
40872;BME280;26591;43.264;26.940;2023-06-19T04:32:34;98830.06;;;22.83;66.17
40872;BME280;26591;43.264;26.940;2023-06-19T04:35:07;98831.19;;;22.65;66.49
40872;BME280;26591;43.264;26.940;2023-06-19T04:37:33;98825.72;;;22.60;66.15
40872;BME280;26591;43.264;26.940;2023-06-19T04:39:58;98836.66;;;22.31;67.14
40872;BME280;26591;43.264;26.940;2023-06-19T04:42:24;98841.59;;;22.56;66.32
40872;BME280;26591;43.264;26.940;2023-06-19T04:44:49;98838.22;;;22.88;65.95
40872;BME280;26591;43.264;26.940;2023-06-19T04:47:19;98842.94;;;23.20;64.14
40872;BME280;26591;43.264;26.940;2023-06-19T04:49:46;98840.03;;;23.05;64.64
40872;BME280;26591;43.264;26.940;2023-06-19T04:52:11;98838.41;;;22.59;66.22
40872;BME280;26591;43.264;26.940;2023-06-19T04:54:37;98843.50;;;22.38;67.21
40872;BME280;26591;43.264;26.940;2023-06-19T04:57:03;98845.78;;;22.30;66.85
40872;BME280;26591;43.264;26.940;2023-06-19T04:59:28;98848.34;;;22.19;67.50
40872;BME280;26591;43.264;26.940;2023-06-19T05:01:56;98856.25;;;22.43;67.00
40872;BME280;26591;43.264;26.940;2023-06-19T05:04:31;98851.31;;;22.18;67.10
40872;BME280;26591;43.264;26.940;2023-06-19T05:06:58;98850.81;;;21.70;68.21
40872;BME280;26591;43.264;26.940;2023-06-19T05:09:24;98859.88;;;21.80;67.62
40872;BME280;26591;43.264;26.940;2023-06-19T05:11:49;98857.91;;;21.76;67.76
40872;BME280;26591;43.264;26.940;2023-06-19T05:14:15;98851.91;;;21.69;67.83
40872;BME280;26591;43.264;26.940;2023-06-19T05:16:40;98854.81;;;21.67;68.46
40872;BME280;26591;43.264;26.940;2023-06-19T05:19:06;98855.66;;;21.56;69.80
40872;BME280;26591;43.264;26.940;2023-06-19T05:21:31;98867.88;;;21.75;69.12
40872;BME280;26591;43.264;26.940;2023-06-19T05:23:57;98861.03;;;21.85;68.28
40872;BME280;26591;43.264;26.940;2023-06-19T05:26:22;98866.72;;;21.88;67.85
40872;BME280;26591;43.264;26.940;2023-06-19T05:28:50;98860.69;;;21.98;68.26
40872;BME280;26591;43.264;26.940;2023-06-19T05:31:16;98863.38;;;22.15;67.96
40872;BME280;26591;43.264;26.940;2023-06-19T05:33:42;98869.72;;;22.43;67.06
40872;BME280;26591;43.264;26.940;2023-06-19T05:36:08;98870.13;;;22.52;66.51
40872;BME280;26591;43.264;26.940;2023-06-19T05:38:33;98867.31;;;22.86;66.22
40872;BME280;26591;43.264;26.940;2023-06-19T05:40:59;98867.25;;;22.81;65.95
40872;BME280;26591;43.264;26.940;2023-06-19T05:43:25;98863.63;;;22.92;66.69
40872;BME280;26591;43.264;26.940;2023-06-19T05:45:52;98873.09;;;23.17;65.94
40872;BME280;26591;43.264;26.940;2023-06-19T05:48:18;98865.94;;;23.55;64.69
40872;BME280;26591;43.264;26.940;2023-06-19T05:50:43;98869.41;;;23.83;63.35
40872;BME280;26591;43.264;26.940;2023-06-19T05:53:09;98878.81;;;23.75;62.87
40872;BME280;26591;43.264;26.940;2023-06-19T05:55:34;98879.03;;;23.41;63.84
40872;BME280;26591;43.264;26.940;2023-06-19T05:58:02;98885.91;;;23.54;63.71
40872;BME280;26591;43.264;26.940;2023-06-19T06:00:30;98886.91;;;23.21;64.99
40872;BME280;26591;43.264;26.940;2023-06-19T06:02:57;98888.97;;;23.36;64.39
40872;BME280;26591;43.264;26.940;2023-06-19T06:05:26;98884.28;;;23.53;64.29
40872;BME280;26591;43.264;26.940;2023-06-19T06:07:52;98891.41;;;23.37;63.54
40872;BME280;26591;43.264;26.940;2023-06-19T06:10:22;98885.81;;;23.44;64.38
40872;BME280;26591;43.264;26.940;2023-06-19T06:12:48;98889.22;;;23.34;65.11
40872;BME280;26591;43.264;26.940;2023-06-19T06:15:14;98886.44;;;23.51;64.17
40872;BME280;26591;43.264;26.940;2023-06-19T06:17:40;98883.75;;;23.51;63.95
40872;BME280;26591;43.264;26.940;2023-06-19T06:20:06;98872.38;;;23.82;63.99
40872;BME280;26591;43.264;26.940;2023-06-19T06:22:41;98876.59;;;24.00;62.84
40872;BME280;26591;43.264;26.940;2023-06-19T06:25:07;98870.03;;;23.90;62.80
40872;BME280;26591;43.264;26.940;2023-06-19T06:27:33;98878.06;;;24.61;61.93
40872;BME280;26591;43.264;26.940;2023-06-19T06:29:59;98872.50;;;25.57;61.61
40872;BME280;26591;43.264;26.940;2023-06-19T06:32:24;98880.50;;;26.71;57.64
40872;BME280;26591;43.264;26.940;2023-06-19T06:34:51;98877.47;;;27.48;54.72
40872;BME280;26591;43.264;26.940;2023-06-19T06:37:17;98882.78;;;28.57;52.78
40872;BME280;26591;43.264;26.940;2023-06-19T06:39:48;98867.63;;;29.19;50.93
40872;BME280;26591;43.264;26.940;2023-06-19T06:42:14;98877.94;;;29.60;49.79
40872;BME280;26591;43.264;26.940;2023-06-19T06:44:42;98871.66;;;29.93;47.03
40872;BME280;26591;43.264;26.940;2023-06-19T06:47:07;98866.78;;;29.76;46.71
40872;BME280;26591;43.264;26.940;2023-06-19T06:49:33;98865.16;;;28.98;47.46
40872;BME280;26591;43.264;26.940;2023-06-19T06:51:58;98875.19;;;29.03;47.89
40872;BME280;26591;43.264;26.940;2023-06-19T06:54:24;98873.47;;;28.88;48.67
40872;BME280;26591;43.264;26.940;2023-06-19T06:56:50;98874.59;;;28.33;49.63
40872;BME280;26591;43.264;26.940;2023-06-19T06:59:17;98881.72;;;28.29;50.98
40872;BME280;26591;43.264;26.940;2023-06-19T07:01:43;98878.66;;;28.36;50.49
40872;BME280;26591;43.264;26.940;2023-06-19T07:04:08;98876.94;;;27.86;51.52
40872;BME280;26591;43.264;26.940;2023-06-19T07:06:35;98879.34;;;27.87;51.29
40872;BME280;26591;43.264;26.940;2023-06-19T07:09:01;98880.34;;;27.97;51.56
40872;BME280;26591;43.264;26.940;2023-06-19T07:11:27;98879.28;;;28.27;50.25
40872;BME280;26591;43.264;26.940;2023-06-19T07:13:53;98879.25;;;27.98;50.18
40872;BME280;26591;43.264;26.940;2023-06-19T07:16:18;98885.34;;;28.19;50.18
40872;BME280;26591;43.264;26.940;2023-06-19T07:18:44;98886.53;;;28.61;49.79
40872;BME280;26591;43.264;26.940;2023-06-19T07:21:12;98886.66;;;28.51;49.34
40872;BME280;26591;43.264;26.940;2023-06-19T07:23:41;98885.53;;;28.82;49.00
40872;BME280;26591;43.264;26.940;2023-06-19T07:26:09;98875.72;;;29.24;47.51
40872;BME280;26591;43.264;26.940;2023-06-19T07:28:34;98872.38;;;29.08;46.93
40872;BME280;26591;43.264;26.940;2023-06-19T07:31:02;98873.78;;;29.24;47.77
40872;BME280;26591;43.264;26.940;2023-06-19T07:33:28;98877.47;;;29.15;48.05
40872;BME280;26591;43.264;26.940;2023-06-19T07:35:55;98873.41;;;29.36;47.49
40872;BME280;26591;43.264;26.940;2023-06-19T07:38:20;98875.47;;;29.20;47.98
40872;BME280;26591;43.264;26.940;2023-06-19T07:40:46;98881.00;;;28.96;48.02
40872;BME280;26591;43.264;26.940;2023-06-19T07:43:11;98887.19;;;28.53;48.30
40872;BME280;26591;43.264;26.940;2023-06-19T07:45:37;98880.28;;;28.37;49.36
40872;BME280;26591;43.264;26.940;2023-06-19T07:48:02;98876.91;;;28.21;49.23
40872;BME280;26591;43.264;26.940;2023-06-19T07:50:28;98880.75;;;27.40;51.20
40872;BME280;26591;43.264;26.940;2023-06-19T07:52:53;98880.75;;;27.45;51.87
40872;BME280;26591;43.264;26.940;2023-06-19T07:55:24;98881.94;;;27.23;52.51
40872;BME280;26591;43.264;26.940;2023-06-19T07:57:50;98881.13;;;26.42;54.75
40872;BME280;26591;43.264;26.940;2023-06-19T08:00:17;98888.47;;;26.26;55.60
40872;BME280;26591;43.264;26.940;2023-06-19T08:02:43;98889.84;;;26.28;55.67
40872;BME280;26591;43.264;26.940;2023-06-19T08:05:09;98880.56;;;26.55;54.35
40872;BME280;26591;43.264;26.940;2023-06-19T08:07:35;98877.84;;;26.60;54.10
40872;BME280;26591;43.264;26.940;2023-06-19T08:10:02;98882.66;;;26.89;54.47
40872;BME280;26591;43.264;26.940;2023-06-19T08:12:29;98877.72;;;26.96;55.01
40872;BME280;26591;43.264;26.940;2023-06-19T08:14:55;98880.88;;;26.33;57.08
40872;BME280;26591;43.264;26.940;2023-06-19T08:17:20;98886.28;;;26.54;56.28
40872;BME280;26591;43.264;26.940;2023-06-19T08:19:46;98890.25;;;26.77;56.30
40872;BME280;26591;43.264;26.940;2023-06-19T08:22:11;98900.16;;;26.31;58.07
40872;BME280;26591;43.264;26.940;2023-06-19T08:24:37;98900.13;;;26.05;59.60
40872;BME280;26591;43.264;26.940;2023-06-19T08:27:05;98889.00;;;25.55;61.74
40872;BME280;26591;43.264;26.940;2023-06-19T08:29:30;98892.50;;;25.46;58.63
40872;BME280;26591;43.264;26.940;2023-06-19T08:31:56;98888.72;;;25.52;57.87
40872;BME280;26591;43.264;26.940;2023-06-19T08:34:21;98892.81;;;25.70;60.82
40872;BME280;26591;43.264;26.940;2023-06-19T08:36:48;98903.38;;;25.66;63.52
40872;BME280;26591;43.264;26.940;2023-06-19T08:39:13;98896.88;;;25.62;63.48
40872;BME280;26591;43.264;26.940;2023-06-19T08:41:39;98902.84;;;25.64;65.16
40872;BME280;26591;43.264;26.940;2023-06-19T08:44:06;98897.16;;;25.61;65.83
40872;BME280;26591;43.264;26.940;2023-06-19T08:46:33;98904.19;;;25.51;65.05
40872;BME280;26591;43.264;26.940;2023-06-19T08:48:59;98892.00;;;25.64;64.22
40872;BME280;26591;43.264;26.940;2023-06-19T08:51:27;98894.97;;;25.68;63.15
40872;BME280;26591;43.264;26.940;2023-06-19T08:54:03;98900.13;;;25.64;66.08
40872;BME280;26591;43.264;26.940;2023-06-19T08:56:30;98900.94;;;25.85;63.98
40872;BME280;26591;43.264;26.940;2023-06-19T08:59:13;98898.50;;;26.04;64.31
40872;BME280;26591;43.264;26.940;2023-06-19T09:01:40;98898.81;;;26.18;63.19
40872;BME280;26591;43.264;26.940;2023-06-19T09:04:18;98902.00;;;26.46;61.73
40872;BME280;26591;43.264;26.940;2023-06-19T09:07:03;98891.41;;;26.50;60.03
40872;BME280;26591;43.264;26.940;2023-06-19T09:09:29;98884.63;;;26.63;58.65
40872;BME280;26591;43.264;26.940;2023-06-19T09:12:07;98897.09;;;26.64;60.73
40872;BME280;26591;43.264;26.940;2023-06-19T09:17:06;98892.13;;;26.92;60.23
40872;BME280;26591;43.264;26.940;2023-06-19T09:19:33;98888.16;;;26.48;61.05
40872;BME280;26591;43.264;26.940;2023-06-19T09:22:04;98899.28;;;26.62;59.90
40872;BME280;26591;43.264;26.940;2023-06-19T09:24:40;98890.81;;;26.84;60.09
40872;BME280;26591;43.264;26.940;2023-06-19T09:27:09;98890.25;;;26.87;59.60
40872;BME280;26591;43.264;26.940;2023-06-19T09:29:40;98890.34;;;27.27;59.45
40872;BME280;26591;43.264;26.940;2023-06-19T09:34:48;98877.75;;;27.81;54.94
40872;BME280;26591;43.264;26.940;2023-06-19T09:37:30;98890.22;;;27.87;54.55
40872;BME280;26591;43.264;26.940;2023-06-19T09:40:04;98895.97;;;27.46;55.69
40872;BME280;26591;43.264;26.940;2023-06-19T09:42:43;98899.00;;;27.79;55.34
40872;BME280;26591;43.264;26.940;2023-06-19T09:45:11;98888.56;;;27.57;55.13
40872;BME280;26591;43.264;26.940;2023-06-19T09:47:38;98889.22;;;27.33;55.78
40872;BME280;26591;43.264;26.940;2023-06-19T09:50:05;98892.09;;;27.02;55.43
40872;BME280;26591;43.264;26.940;2023-06-19T09:52:32;98906.41;;;26.22;58.50
40872;BME280;26591;43.264;26.940;2023-06-19T09:55:02;98921.34;;;24.56;66.29
40872;BME280;26591;43.264;26.940;2023-06-19T09:57:28;98921.88;;;23.87;71.92
40872;BME280;26591;43.264;26.940;2023-06-19T09:59:55;98904.81;;;23.54;69.76
40872;BME280;26591;43.264;26.940;2023-06-19T10:02:22;98913.97;;;23.26;71.77
40872;BME280;26591;43.264;26.940;2023-06-19T10:04:52;98910.94;;;23.72;71.19
40872;BME280;26591;43.264;26.940;2023-06-19T10:07:23;98912.28;;;24.02;70.08
40872;BME280;26591;43.264;26.940;2023-06-19T10:10:08;98903.38;;;23.74;70.85
40872;BME280;26591;43.264;26.940;2023-06-19T10:12:41;98909.06;;;23.72;70.99
40872;BME280;26591;43.264;26.940;2023-06-19T10:15:10;98903.25;;;23.91;71.05
40872;BME280;26591;43.264;26.940;2023-06-19T10:17:37;98892.41;;;23.86;72.17
40872;BME280;26591;43.264;26.940;2023-06-19T10:20:03;98889.81;;;23.96;71.32
40872;BME280;26591;43.264;26.940;2023-06-19T10:22:32;98894.47;;;23.73;71.80
40872;BME280;26591;43.264;26.940;2023-06-19T10:24:58;98891.00;;;23.51;72.27
40872;BME280;26591;43.264;26.940;2023-06-19T10:27:24;98889.44;;;23.55;72.36
40872;BME280;26591;43.264;26.940;2023-06-19T10:29:54;98883.13;;;23.76;73.14
40872;BME280;26591;43.264;26.940;2023-06-19T10:32:20;98890.38;;;23.98;71.10
40872;BME280;26591;43.264;26.940;2023-06-19T10:34:49;98890.22;;;24.10;74.00
40872;BME280;26591;43.264;26.940;2023-06-19T10:37:32;98886.38;;;24.44;74.48
40872;BME280;26591;43.264;26.940;2023-06-19T10:39:58;98872.22;;;24.74;71.39
40872;BME280;26591;43.264;26.940;2023-06-19T10:42:23;98877.81;;;25.31;70.17
40872;BME280;26591;43.264;26.940;2023-06-19T10:44:49;98874.66;;;25.81;70.97
40872;BME280;26591;43.264;26.940;2023-06-19T10:47:14;98866.53;;;26.27;69.81
40872;BME280;26591;43.264;26.940;2023-06-19T10:49:41;98862.94;;;26.53;66.95
40872;BME280;26591;43.264;26.940;2023-06-19T10:52:07;98868.38;;;26.53;68.11
40872;BME280;26591;43.264;26.940;2023-06-19T10:54:32;98865.59;;;26.68;66.83
40872;BME280;26591;43.264;26.940;2023-06-19T10:56:58;98860.63;;;26.96;67.32
40872;BME280;26591;43.264;26.940;2023-06-19T10:59:28;98851.03;;;27.09;67.97
40872;BME280;26591;43.264;26.940;2023-06-19T11:01:53;98856.00;;;26.91;67.50
40872;BME280;26591;43.264;26.940;2023-06-19T11:04:19;98850.41;;;27.27;64.32
40872;BME280;26591;43.264;26.940;2023-06-19T11:06:44;98852.56;;;27.25;65.21
40872;BME280;26591;43.264;26.940;2023-06-19T11:09:13;98863.09;;;27.37;64.94
40872;BME280;26591;43.264;26.940;2023-06-19T11:11:42;98853.13;;;27.22;63.45
40872;BME280;26591;43.264;26.940;2023-06-19T11:14:09;98849.69;;;27.11;65.64
40872;BME280;26591;43.264;26.940;2023-06-19T11:16:35;98846.06;;;27.21;63.50
40872;BME280;26591;43.264;26.940;2023-06-19T11:19:02;98840.00;;;27.80;61.05
40872;BME280;26591;43.264;26.940;2023-06-19T11:21:36;98835.25;;;28.50;57.27
40872;BME280;26591;43.264;26.940;2023-06-19T11:24:12;98838.94;;;28.59;58.54
40872;BME280;26591;43.264;26.940;2023-06-19T11:26:40;98843.09;;;28.27;59.13
40872;BME280;26591;43.264;26.940;2023-06-19T11:29:22;98831.03;;;27.79;58.22
40872;BME280;26591;43.264;26.940;2023-06-19T11:31:48;98830.50;;;28.07;57.53
40872;BME280;26591;43.264;26.940;2023-06-19T11:34:14;98826.09;;;27.47;59.25
40872;BME280;26591;43.264;26.940;2023-06-19T11:36:41;98831.56;;;26.96;59.38
40872;BME280;26591;43.264;26.940;2023-06-19T11:39:11;98838.75;;;27.22;60.78
40872;BME280;26591;43.264;26.940;2023-06-19T11:41:38;98828.88;;;26.91;59.67
40872;BME280;26591;43.264;26.940;2023-06-19T11:44:06;98828.94;;;26.71;60.46
40872;BME280;26591;43.264;26.940;2023-06-19T11:46:33;98832.31;;;26.47;61.15
40872;BME280;26591;43.264;26.940;2023-06-19T11:51:37;98848.72;;;26.87;64.39
40872;BME280;26591;43.264;26.940;2023-06-19T11:54:08;98835.88;;;27.42;62.21
40872;BME280;26591;43.264;26.940;2023-06-19T11:56:34;98821.38;;;27.63;59.26
40872;BME280;26591;43.264;26.940;2023-06-19T11:59:01;98822.72;;;27.65;58.02
40872;BME280;26591;43.264;26.940;2023-06-19T12:01:28;98822.50;;;27.56;57.17
40872;BME280;26591;43.264;26.940;2023-06-19T12:03:54;98829.13;;;27.45;57.89
40872;BME280;26591;43.264;26.940;2023-06-19T12:06:20;98827.91;;;27.17;56.40
40872;BME280;26591;43.264;26.940;2023-06-19T12:08:45;98827.44;;;27.09;58.32
40872;BME280;26591;43.264;26.940;2023-06-19T12:11:11;98824.22;;;27.47;57.79
40872;BME280;26591;43.264;26.940;2023-06-19T12:13:41;98818.53;;;27.38;57.13
40872;BME280;26591;43.264;26.940;2023-06-19T12:16:07;98816.50;;;27.60;58.09
40872;BME280;26591;43.264;26.940;2023-06-19T12:18:33;98811.66;;;27.86;57.02
40872;BME280;26591;43.264;26.940;2023-06-19T12:20:59;98808.91;;;27.56;57.01
40872;BME280;26591;43.264;26.940;2023-06-19T12:23:28;98806.50;;;27.84;55.63
40872;BME280;26591;43.264;26.940;2023-06-19T12:25:53;98809.00;;;28.10;55.95
40872;BME280;26591;43.264;26.940;2023-06-19T12:28:19;98811.09;;;28.43;55.58
40872;BME280;26591;43.264;26.940;2023-06-19T12:30:45;98797.94;;;28.93;54.97
40872;BME280;26591;43.264;26.940;2023-06-19T12:33:11;98791.38;;;29.14;53.78
40872;BME280;26591;43.264;26.940;2023-06-19T12:35:39;98785.00;;;28.85;50.42
40872;BME280;26591;43.264;26.940;2023-06-19T12:38:08;98785.97;;;28.70;49.59
40872;BME280;26591;43.264;26.940;2023-06-19T12:40:33;98786.16;;;28.98;50.40
40872;BME280;26591;43.264;26.940;2023-06-19T12:42:59;98782.78;;;29.26;50.53
40872;BME280;26591;43.264;26.940;2023-06-19T12:45:24;98781.59;;;28.93;47.07
40872;BME280;26591;43.264;26.940;2023-06-19T12:47:50;98769.66;;;29.28;47.06
40872;BME280;26591;43.264;26.940;2023-06-19T12:50:16;98777.34;;;29.06;45.11
40872;BME280;26591;43.264;26.940;2023-06-19T12:52:41;98765.25;;;29.13;44.78
40872;BME280;26591;43.264;26.940;2023-06-19T12:55:07;98771.06;;;29.25;44.62
40872;BME280;26591;43.264;26.940;2023-06-19T12:57:32;98766.94;;;29.28;44.99
40872;BME280;26591;43.264;26.940;2023-06-19T12:59:58;98774.03;;;28.90;45.72